createdAt,value
2018-05-09T00:01:43.549Z,47.80
2018-05-09T00:04:11.063Z,47.80
2018-05-09T00:06:38.648Z,47.80
2018-05-09T00:09:06.247Z,47.90
2018-05-09T00:11:33.781Z,48.00
2018-05-09T00:14:01.293Z,48.00
2018-05-09T00:16:29.586Z,48.30
2018-05-09T00:18:57.880Z,48.90
2018-05-09T00:21:25.408Z,48.80
2018-05-09T00:23:52.943Z,49.10
2018-05-09T00:26:20.465Z,49.40
2018-05-09T00:28:48.022Z,49.50
2018-05-09T00:31:15.520Z,49.70
2018-05-09T00:33:43.045Z,49.90
2018-05-09T00:36:10.596Z,49.90
2018-05-09T00:38:38.163Z,49.90
2018-05-09T00:41:05.688Z,50.00
2018-05-09T00:43:33.963Z,50.40
2018-05-09T00:46:01.493Z,50.30
2018-05-09T00:48:29.015Z,50.70
2018-05-09T00:50:56.541Z,50.80
2018-05-09T00:53:24.847Z,50.90
2018-05-09T00:55:52.355Z,50.80
2018-05-09T00:58:19.871Z,51.00
2018-05-09T01:00:47.376Z,51.30
2018-05-09T01:03:14.917Z,51.30
2018-05-09T01:05:42.631Z,51.50
2018-05-09T01:08:11.199Z,52.00
2018-05-09T01:10:38.863Z,52.00
2018-05-09T01:13:07.508Z,52.10
2018-05-09T01:15:35.445Z,52.10
2018-05-09T01:18:03.703Z,52.10
2018-05-09T01:20:31.486Z,52.00
2018-05-09T01:22:59.122Z,52.00
2018-05-09T01:25:27.522Z,52.00
2018-05-09T01:27:55.113Z,52.00
2018-05-09T01:30:22.642Z,52.20
2018-05-09T01:32:50.208Z,52.40
2018-05-09T01:35:17.811Z,52.70
2018-05-09T01:37:45.347Z,52.80
2018-05-09T01:40:12.867Z,52.80
2018-05-09T01:42:40.388Z,52.70
2018-05-09T01:45:12.165Z,52.90
2018-05-09T01:47:40.041Z,53.00
2018-05-09T01:50:08.625Z,52.80
2018-05-09T01:52:36.509Z,52.80
2018-05-09T01:55:04.028Z,52.90
2018-05-09T01:57:31.782Z,52.90
2018-05-09T02:00:00.092Z,53.10
2018-05-09T02:02:28.088Z,53.20
2018-05-09T02:04:56.364Z,53.40
2018-05-09T02:07:24.813Z,53.60
2018-05-09T02:09:53.298Z,53.50
2018-05-09T02:12:21.555Z,53.70
2018-05-09T02:14:49.444Z,53.90
2018-05-09T02:17:20.347Z,54.10
2018-05-09T02:19:48.360Z,54.20
2018-05-09T02:22:16.780Z,54.10
2018-05-09T02:24:44.910Z,54.10
2018-05-09T02:27:13.231Z,54.40
2018-05-09T02:29:42.300Z,54.70
2018-05-09T02:32:14.903Z,54.90
2018-05-09T02:34:44.803Z,54.90
2018-05-09T02:37:13.374Z,55.00
2018-05-09T02:39:41.561Z,55.20
2018-05-09T02:42:10.343Z,55.30
2018-05-09T02:44:38.855Z,55.50
2018-05-09T02:47:07.444Z,55.70
2018-05-09T02:49:35.382Z,56.00
2018-05-09T02:52:05.836Z,56.30
2018-05-09T02:54:35.740Z,56.30
2018-05-09T02:57:04.109Z,56.60
2018-05-09T02:59:32.978Z,56.80
2018-05-09T03:02:00.581Z,56.90
2018-05-09T03:04:28.121Z,57.10
2018-05-09T03:06:56.835Z,57.80
2018-05-09T03:09:24.353Z,57.80
2018-05-09T03:11:51.845Z,58.20
2018-05-09T03:14:19.378Z,58.20
2018-05-09T03:16:47.658Z,58.90
2018-05-09T03:19:15.973Z,59.00
2018-05-09T03:21:43.509Z,59.00
2018-05-09T03:24:11.013Z,60.00
2018-05-09T03:26:38.539Z,59.50
2018-05-09T03:29:06.067Z,59.60
2018-05-09T03:31:33.570Z,59.60
2018-05-09T03:34:01.096Z,59.80
2018-05-09T03:36:29.401Z,60.00
2018-05-09T03:38:56.919Z,60.00
2018-05-09T03:41:24.464Z,59.90
2018-05-09T03:43:57.635Z,60.00
2018-05-09T03:46:26.973Z,60.40
2018-05-09T03:48:55.498Z,60.40
2018-05-09T03:51:23.825Z,60.60
2018-05-09T03:53:52.238Z,61.00
2018-05-09T03:56:20.694Z,61.10
2018-05-09T03:58:51.407Z,62.80
2018-05-09T04:01:19.624Z,61.80
2018-05-09T04:04:00.577Z,62.60
2018-05-09T04:06:40.327Z,62.90
2018-05-09T04:09:20.051Z,63.20
2018-05-09T04:11:47.842Z,63.30
2018-05-09T04:14:19.520Z,63.20
2018-05-09T04:16:47.579Z,63.10
2018-05-09T04:19:16.127Z,63.40
2018-05-09T04:21:43.847Z,63.50
2018-05-09T04:24:11.397Z,63.60
2018-05-09T04:26:39.111Z,63.90
2018-05-09T04:29:07.011Z,63.30
2018-05-09T04:31:35.567Z,64.10
2018-05-09T04:34:03.106Z,64.00
2018-05-09T04:36:30.635Z,63.90
2018-05-09T04:38:58.161Z,64.30
2018-05-09T04:41:25.689Z,64.50
2018-05-09T04:43:53.210Z,64.50
2018-05-09T04:46:21.489Z,64.60
2018-05-09T04:48:49.787Z,64.90
2018-05-09T04:51:17.424Z,64.80
2018-05-09T04:53:45.713Z,65.80
2018-05-09T04:56:13.259Z,65.60
2018-05-09T04:58:40.809Z,66.40
2018-05-09T05:01:09.098Z,65.90
2018-05-09T05:03:37.399Z,66.60
2018-05-09T05:06:04.945Z,66.60
2018-05-09T05:08:32.486Z,66.70
2018-05-09T05:11:00.801Z,67.20
2018-05-09T05:13:28.387Z,66.90
2018-05-09T05:15:55.958Z,66.80
2018-05-09T05:18:23.511Z,66.50
2018-05-09T05:20:51.017Z,66.20
2018-05-09T05:23:19.295Z,66.50
2018-05-09T05:25:46.841Z,66.50
2018-05-09T05:28:14.394Z,66.60
2018-05-09T05:30:42.778Z,67.10
2018-05-09T05:33:10.288Z,67.10
2018-05-09T05:35:37.845Z,67.10
2018-05-09T05:38:05.366Z,67.80
2018-05-09T05:40:33.711Z,67.80
2018-05-09T05:43:01.314Z,67.80
2018-05-09T05:45:28.988Z,68.00
2018-05-09T05:47:56.469Z,68.50
2018-05-09T05:50:24.054Z,68.80
2018-05-09T05:52:51.580Z,69.00
2018-05-09T05:55:19.365Z,69.40
2018-05-09T05:57:46.901Z,69.40
2018-05-09T06:00:14.489Z,69.70
2018-05-09T06:02:42.029Z,69.40
2018-05-09T06:05:09.570Z,68.70
2018-05-09T06:07:37.116Z,68.50
2018-05-09T06:10:04.757Z,68.50
2018-05-09T06:12:32.327Z,68.30
2018-05-09T06:14:59.925Z,68.30
2018-05-09T06:17:27.444Z,68.60
2018-05-09T06:19:55.838Z,68.70
2018-05-09T06:22:23.424Z,68.70
2018-05-09T06:24:50.945Z,68.70
2018-05-09T06:27:18.508Z,68.50
2018-05-09T06:29:46.810Z,67.80
2018-05-09T06:32:14.344Z,67.80
2018-05-09T06:34:41.858Z,67.00
2018-05-09T06:37:09.400Z,67.00
2018-05-09T06:39:36.927Z,67.40
2018-05-09T06:42:04.478Z,67.80
2018-05-09T06:44:32.005Z,67.30
2018-05-09T06:46:59.522Z,67.00
2018-05-09T06:49:27.038Z,66.90
2018-05-09T06:51:55.322Z,66.80
2018-05-09T06:54:22.845Z,66.70
2018-05-09T06:56:50.408Z,67.00
2018-05-09T06:59:17.981Z,67.00
2018-05-09T07:01:45.505Z,66.90
2018-05-09T07:04:13.010Z,66.70
2018-05-09T07:06:40.911Z,66.80
2018-05-09T07:09:08.993Z,66.60
2018-05-09T07:11:37.295Z,67.10
2018-05-09T07:14:04.830Z,67.10
2018-05-09T07:16:32.345Z,67.10
2018-05-09T07:19:01.738Z,67.10
2018-05-09T07:21:29.274Z,66.00
2018-05-09T07:23:56.838Z,66.10
2018-05-09T07:26:24.606Z,66.00
2018-05-09T07:28:52.139Z,65.60
2018-05-09T07:31:20.420Z,65.00
2018-05-09T07:33:48.227Z,65.00
2018-05-09T07:36:15.793Z,64.70
2018-05-09T07:38:43.302Z,64.00
2018-05-09T07:41:10.990Z,64.20
2018-05-09T07:43:38.645Z,63.60
2018-05-09T07:46:06.176Z,63.90
2018-05-09T07:48:34.486Z,64.00
2018-05-09T07:51:02.038Z,63.80
2018-05-09T07:53:29.620Z,62.40
2018-05-09T07:55:57.143Z,62.00
2018-05-09T07:58:24.700Z,61.10
2018-05-09T08:00:52.249Z,61.30
2018-05-09T08:03:19.770Z,61.40
2018-05-09T08:05:47.308Z,61.20
2018-05-09T08:08:14.810Z,62.00
2018-05-09T08:10:42.407Z,61.50
2018-05-09T08:13:10.775Z,61.30
2018-05-09T08:15:38.296Z,61.20
2018-05-09T08:18:05.824Z,61.20
2018-05-09T08:20:33.417Z,60.80
2018-05-09T08:23:00.963Z,60.20
2018-05-09T08:25:28.534Z,60.50
2018-05-09T08:27:56.080Z,60.20
2018-05-09T08:30:23.716Z,61.10
2018-05-09T08:32:51.211Z,60.60
2018-05-09T08:35:18.732Z,60.00
2018-05-09T08:37:46.238Z,59.90
2018-05-09T08:40:13.772Z,60.10
2018-05-09T08:42:41.326Z,60.20
2018-05-09T08:45:08.850Z,59.70
2018-05-09T08:47:37.143Z,59.50
2018-05-09T08:50:05.467Z,59.20
2018-05-09T08:52:33.028Z,59.20
2018-05-09T08:55:00.530Z,59.40
2018-05-09T08:57:28.090Z,58.90
2018-05-09T08:59:55.794Z,58.80
2018-05-09T09:02:23.443Z,58.50
2018-05-09T09:04:51.001Z,57.20
2018-05-09T09:07:18.561Z,56.70
2018-05-09T09:09:46.082Z,56.90
2018-05-09T09:12:13.656Z,56.40
2018-05-09T09:14:41.195Z,56.30
2018-05-09T09:17:08.715Z,55.00
2018-05-09T09:19:36.232Z,54.00
2018-05-09T09:22:03.786Z,54.50
2018-05-09T09:24:32.089Z,54.00
2018-05-09T09:26:59.584Z,53.90
2018-05-09T09:29:27.115Z,53.70
2018-05-09T09:31:54.669Z,51.50
2018-05-09T09:34:22.204Z,51.40
2018-05-09T09:36:50.523Z,50.00
2018-05-09T09:39:18.167Z,50.00
2018-05-09T09:41:45.691Z,48.80
2018-05-09T09:44:13.240Z,48.40
2018-05-09T09:46:41.169Z,47.80
2018-05-09T09:49:08.696Z,47.60
2018-05-09T09:51:36.992Z,47.20
2018-05-09T09:54:04.543Z,47.20
2018-05-09T09:56:32.073Z,47.00
2018-05-09T09:58:59.658Z,46.80
2018-05-09T10:01:27.189Z,46.60
2018-05-09T10:03:54.787Z,45.60
2018-05-09T10:06:22.473Z,45.50
2018-05-09T10:08:50.013Z,44.80
2018-05-09T10:11:18.332Z,43.40
2018-05-09T10:13:45.853Z,43.40
2018-05-09T10:16:13.378Z,43.40
2018-05-09T10:18:41.714Z,42.30
2018-05-09T10:21:09.232Z,42.30
2018-05-09T10:23:36.755Z,42.50
2018-05-09T10:26:04.294Z,42.70
2018-05-09T10:28:31.845Z,42.40
2018-05-09T10:30:59.367Z,42.40
2018-05-09T10:33:27.718Z,40.40
2018-05-09T10:35:55.238Z,40.30
2018-05-09T10:38:22.770Z,38.30
2018-05-09T10:40:51.042Z,31.90
2018-05-09T10:43:19.346Z,30.60
2018-05-09T10:45:46.919Z,30.10
2018-05-09T10:48:14.507Z,28.90
2018-05-09T10:50:42.142Z,28.20
2018-05-09T10:53:09.615Z,27.30
2018-05-09T10:55:37.122Z,27.30
2018-05-09T10:58:04.659Z,26.30
2018-05-09T11:00:32.205Z,24.70
2018-05-09T11:02:59.782Z,24.60
2018-05-09T11:05:27.408Z,24.40
2018-05-09T11:07:54.944Z,24.20
2018-05-09T11:10:22.495Z,23.80
2018-05-09T11:12:50.116Z,23.20
2018-05-09T11:15:17.625Z,22.60
2018-05-09T11:17:45.174Z,22.50
2018-05-09T11:20:13.472Z,22.40
2018-05-09T11:22:41.028Z,22.30
2018-05-09T11:25:08.569Z,22.20
2018-05-09T11:27:36.840Z,21.90
2018-05-09T11:30:05.140Z,22.10
2018-05-09T11:32:32.683Z,22.00
2018-05-09T11:35:00.218Z,21.50
2018-05-09T11:37:27.775Z,21.60
2018-05-09T11:39:55.424Z,21.30
2018-05-09T11:42:22.995Z,20.90
2018-05-09T11:44:50.640Z,20.40
2018-05-09T11:47:18.210Z,20.60
2018-05-09T11:49:45.765Z,21.30
2018-05-09T11:52:13.340Z,21.40
2018-05-09T11:54:40.875Z,22.80
2018-05-09T11:57:08.407Z,24.10
2018-05-09T11:59:36.001Z,25.50
2018-05-09T12:02:03.615Z,26.90
2018-05-09T12:04:31.149Z,28.30
2018-05-09T12:06:58.680Z,29.70
2018-05-09T12:09:26.230Z,30.70
2018-05-09T12:11:53.773Z,31.70
2018-05-09T12:14:21.383Z,32.60
2018-05-09T12:16:48.955Z,33.30
2018-05-09T12:19:16.480Z,33.90
2018-05-09T12:21:44.064Z,33.90
2018-05-09T12:24:11.617Z,34.60
2018-05-09T12:26:39.180Z,34.80
2018-05-09T12:29:06.778Z,34.00
2018-05-09T12:31:35.097Z,32.80
2018-05-09T12:34:02.629Z,32.80
2018-05-09T12:36:30.297Z,31.20
2018-05-09T12:38:57.775Z,31.80
2018-05-09T12:41:25.332Z,32.50
2018-05-09T12:43:52.891Z,31.90
2018-05-09T12:46:20.405Z,32.10
2018-05-09T12:48:48.153Z,31.00
2018-05-09T12:51:15.569Z,31.90
2018-05-09T12:53:43.069Z,32.90
2018-05-09T12:56:10.619Z,33.70
2018-05-09T12:58:38.125Z,34.30
2018-05-09T13:01:06.465Z,34.70
2018-05-09T13:03:34.003Z,34.70
2018-05-09T13:06:01.574Z,34.80
2018-05-09T13:08:29.138Z,34.40
2018-05-09T13:10:56.669Z,34.30
2018-05-09T13:13:24.227Z,33.70
2018-05-09T13:15:51.787Z,32.80
2018-05-09T13:18:19.310Z,32.10
2018-05-09T13:20:46.837Z,32.00
2018-05-09T13:23:15.136Z,32.10
2018-05-09T13:25:43.517Z,32.80
2018-05-09T13:28:11.022Z,32.70
2018-05-09T13:30:38.577Z,32.50
2018-05-09T13:33:06.096Z,33.00
2018-05-09T13:35:33.657Z,33.00
2018-05-09T13:38:01.934Z,32.70
2018-05-09T13:40:30.243Z,32.00
2018-05-09T13:42:57.784Z,32.00
2018-05-09T13:45:25.348Z,31.70
2018-05-09T13:47:53.654Z,29.60
2018-05-09T13:50:21.201Z,29.60
2018-05-09T13:52:48.726Z,28.70
2018-05-09T13:55:16.264Z,28.60
2018-05-09T13:57:43.787Z,29.40
2018-05-09T14:00:11.301Z,30.70
2018-05-09T14:02:38.838Z,32.00
2018-05-09T14:05:06.364Z,32.50
2018-05-09T14:07:33.913Z,32.90
2018-05-09T14:10:01.469Z,33.00
2018-05-09T14:12:28.969Z,33.50
2018-05-09T14:14:56.489Z,33.50
2018-05-09T14:17:24.849Z,33.70
2018-05-09T14:19:52.391Z,33.70
2018-05-09T14:22:19.949Z,34.20
2018-05-09T14:24:47.473Z,33.70
2018-05-09T14:27:15.204Z,33.80
2018-05-09T14:29:42.642Z,34.40
2018-05-09T14:32:10.298Z,34.70
2018-05-09T14:34:37.828Z,35.50
2018-05-09T14:37:05.366Z,36.00
2018-05-09T14:39:32.930Z,35.90
2018-05-09T14:42:00.428Z,35.80
2018-05-09T14:44:28.134Z,35.20
2018-05-09T14:46:55.690Z,35.30
2018-05-09T14:49:23.977Z,35.70
2018-05-09T14:51:51.586Z,35.70
2018-05-09T14:54:19.120Z,35.50
2018-05-09T14:56:46.654Z,35.00
2018-05-09T14:59:14.173Z,34.90
2018-05-09T15:01:41.735Z,35.10
2018-05-09T15:04:09.454Z,35.30
2018-05-09T15:06:36.987Z,35.50
2018-05-09T15:09:05.270Z,36.20
2018-05-09T15:11:33.584Z,35.90
2018-05-09T15:14:01.221Z,35.90
2018-05-09T15:16:28.733Z,36.30
2018-05-09T15:18:56.377Z,36.40
2018-05-09T15:21:23.958Z,36.40
2018-05-09T15:23:51.564Z,36.30
2018-05-09T15:26:19.114Z,36.70
2018-05-09T15:28:46.770Z,36.00
2018-05-09T15:31:15.193Z,36.60
2018-05-09T15:33:42.715Z,36.50
2018-05-09T15:36:11.144Z,36.40
2018-05-09T15:38:38.687Z,36.30
2018-05-09T15:41:06.199Z,36.80
2018-05-09T15:43:34.478Z,36.10
2018-05-09T15:46:02.238Z,35.50
2018-05-09T15:48:30.555Z,35.70
2018-05-09T15:50:58.070Z,35.50
2018-05-09T15:53:26.501Z,35.50
2018-05-09T15:55:54.775Z,35.40
2018-05-09T15:58:22.279Z,35.30
2018-05-09T16:00:49.900Z,35.60
2018-05-09T16:03:17.418Z,35.60
2018-05-09T16:05:44.945Z,36.00
2018-05-09T16:08:12.489Z,35.90
2018-05-09T16:10:41.010Z,36.00
2018-05-09T16:13:08.542Z,36.50
2018-05-09T16:15:36.085Z,36.80
2018-05-09T16:18:03.622Z,36.80
2018-05-09T16:20:31.149Z,37.10
2018-05-09T16:22:58.681Z,37.10
2018-05-09T16:25:26.256Z,37.50
2018-05-09T16:27:53.878Z,37.70
2018-05-09T16:30:21.403Z,37.90
2018-05-09T16:32:49.753Z,38.10
2018-05-09T16:35:17.340Z,38.10
2018-05-09T16:37:45.692Z,39.00
2018-05-09T16:40:13.235Z,39.00
2018-05-09T16:42:40.785Z,39.30
2018-05-09T16:45:08.422Z,39.50
2018-05-09T16:47:35.971Z,39.60
2018-05-09T16:50:03.504Z,39.20
2018-05-09T16:52:31.809Z,39.60
2018-05-09T16:55:00.156Z,39.40
2018-05-09T16:57:27.679Z,39.30
2018-05-09T16:59:55.268Z,39.60
2018-05-09T17:02:22.810Z,39.70
2018-05-09T17:04:50.376Z,39.70
2018-05-09T17:07:19.630Z,40.00
2018-05-09T17:09:47.998Z,39.90
2018-05-09T17:12:15.768Z,39.90
2018-05-09T17:14:44.062Z,39.30
2018-05-09T17:17:11.636Z,39.30
2018-05-09T17:19:39.226Z,39.30
2018-05-09T17:22:24.327Z,39.00
2018-05-09T17:24:51.905Z,39.00
2018-05-09T17:27:19.456Z,39.30
2018-05-09T17:29:47.013Z,39.80
2018-05-09T17:32:15.314Z,39.40
2018-05-09T17:34:42.863Z,39.40
2018-05-09T17:37:10.414Z,39.50
2018-05-09T17:39:38.771Z,40.00
2018-05-09T17:42:06.298Z,40.00
2018-05-09T17:44:33.882Z,39.80
2018-05-09T17:47:01.406Z,40.00
2018-05-09T17:49:28.931Z,40.00
2018-05-09T17:51:57.247Z,40.90
2018-05-09T17:54:24.957Z,40.90
2018-05-09T17:56:52.530Z,41.30
2018-05-09T17:59:20.833Z,42.80
2018-05-09T18:04:41.137Z,45.20
2018-05-09T18:07:09.542Z,55.50
2018-05-09T18:09:37.079Z,55.40
2018-05-09T18:12:04.687Z,54.90
2018-05-09T18:14:32.973Z,58.50
2018-05-09T18:17:00.540Z,58.50
2018-05-09T18:19:28.138Z,60.40
2018-05-09T18:21:55.682Z,59.70
2018-05-09T18:24:23.993Z,65.40
2018-05-09T18:26:51.577Z,65.40
2018-05-09T18:29:19.319Z,66.70
2018-05-09T18:31:46.869Z,69.10
2018-05-09T18:34:14.447Z,69.30
2018-05-09T18:36:41.976Z,71.90
2018-05-09T18:39:09.564Z,72.50
2018-05-09T18:41:37.090Z,76.50
2018-05-09T18:44:05.397Z,82.80
2018-05-09T18:46:33.005Z,82.80
2018-05-09T18:49:00.581Z,86.20
2018-05-09T18:51:28.175Z,89.90
2018-05-09T18:53:55.720Z,91.40
2018-05-09T18:56:23.306Z,93.10
2018-05-09T18:58:50.895Z,94.30
2018-05-09T19:01:18.472Z,96.00
2018-05-09T19:03:46.018Z,98.10
2018-05-09T19:06:13.719Z,99.40
2018-05-09T19:08:51.715Z,99.90
2018-05-09T19:11:20.795Z,99.90
2018-05-09T19:13:49.076Z,99.90
2018-05-09T19:16:22.198Z,99.90
2018-05-09T19:25:44.084Z,99.90
2018-05-09T19:28:13.824Z,99.90
2018-05-09T19:30:46.021Z,99.90
2018-05-09T19:33:26.756Z,99.90
2018-05-09T19:35:56.852Z,99.90
2018-05-09T19:38:36.903Z,99.90
2018-05-09T19:54:50.424Z,99.90
2018-05-09T19:57:18.429Z,99.90
2018-05-09T19:59:46.244Z,99.90
2018-05-09T20:02:14.190Z,99.90
2018-05-09T20:04:41.831Z,99.90
2018-05-09T20:07:09.712Z,99.90
2018-05-09T20:09:37.492Z,99.90
2018-05-09T20:12:05.406Z,99.90
2018-05-09T20:14:34.569Z,99.90
2018-05-09T20:17:07.547Z,99.90
2018-05-09T20:19:35.299Z,99.90
2018-05-09T20:22:02.907Z,99.90
2018-05-09T20:24:30.595Z,99.90
2018-05-09T20:26:58.184Z,99.90
2018-05-09T20:29:30.178Z,99.90
2018-05-09T20:32:09.460Z,99.90
2018-05-09T20:34:37.031Z,99.90
2018-05-09T20:37:04.837Z,99.90
2018-05-09T20:39:32.664Z,99.90
2018-05-09T20:42:00.282Z,99.90
2018-05-09T20:44:27.868Z,99.90
2018-05-09T20:46:57.520Z,99.90
2018-05-09T20:49:28.046Z,99.90
2018-05-09T20:51:56.290Z,99.90
2018-05-09T20:54:27.646Z,99.90
2018-05-09T20:56:58.879Z,99.90
2018-05-09T20:59:26.506Z,99.90
2018-05-09T21:01:54.176Z,99.70
2018-05-09T21:04:21.941Z,97.60
2018-05-09T21:06:51.039Z,97.20
2018-05-09T21:09:18.794Z,97.20
2018-05-09T21:11:58.036Z,96.90
2018-05-09T21:14:25.767Z,96.60
2018-05-09T21:16:53.443Z,97.30
2018-05-09T21:19:21.044Z,97.60
2018-05-09T21:21:49.319Z,97.80
2018-05-09T21:24:17.641Z,97.70
2018-05-09T21:26:45.155Z,97.70
2018-05-09T21:29:12.710Z,98.00
2018-05-09T21:31:41.005Z,97.00
2018-05-09T21:34:09.311Z,96.40
2018-05-09T21:36:36.831Z,96.40
2018-05-09T21:39:05.150Z,96.30
2018-05-09T21:41:32.689Z,96.10
2018-05-09T21:44:00.202Z,95.60
2018-05-09T21:46:27.792Z,95.60
2018-05-09T21:48:56.252Z,95.70
2018-05-09T21:51:23.915Z,95.70
2018-05-09T21:53:51.489Z,95.60
2018-05-09T21:56:19.306Z,96.60
2018-05-09T21:58:46.871Z,96.70
2018-05-09T22:01:14.597Z,96.80
2018-05-09T22:03:42.208Z,96.30
2018-05-09T22:06:09.821Z,96.80
2018-05-09T22:08:37.483Z,96.90
2018-05-09T22:11:06.233Z,96.30
2018-05-09T22:13:33.997Z,96.30
2018-05-09T22:16:03.249Z,96.70
2018-05-09T22:18:30.904Z,96.60
2018-05-09T22:20:58.544Z,96.70
2018-05-09T22:23:26.868Z,96.90
2018-05-09T22:25:54.497Z,96.90
2018-05-09T22:28:22.823Z,96.90
2018-05-09T22:30:50.376Z,96.90
2018-05-09T22:33:17.930Z,97.00
2018-05-09T22:35:45.567Z,96.90
2018-05-09T22:38:13.876Z,96.80
2018-05-09T22:40:41.425Z,96.80
2018-05-09T22:43:08.974Z,97.10
2018-05-09T22:45:36.539Z,96.90
2018-05-09T22:48:04.060Z,96.80
2018-05-09T22:50:32.391Z,96.90
2018-05-09T22:52:59.954Z,96.90
2018-05-09T22:55:27.556Z,96.90
2018-05-09T22:57:55.170Z,96.90
2018-05-09T23:00:22.717Z,96.70
2018-05-09T23:02:50.479Z,96.50
2018-05-09T23:05:19.601Z,96.70
2018-05-09T23:07:47.188Z,96.40
2018-05-09T23:10:14.825Z,96.20
2018-05-09T23:12:42.568Z,96.30
2018-05-09T23:15:10.318Z,96.30
2018-05-09T23:17:37.999Z,96.20
2018-05-09T23:20:05.605Z,96.30
2018-05-09T23:22:33.221Z,96.30
2018-05-09T23:25:00.891Z,95.90
2018-05-09T23:27:28.511Z,95.90
2018-05-09T23:29:57.024Z,95.90
2018-05-09T23:32:24.981Z,95.90
2018-05-09T23:34:52.950Z,95.90
2018-05-09T23:37:20.624Z,96.20
2018-05-09T23:39:48.298Z,96.30
2018-05-09T23:49:00.761Z,96.20
2018-05-09T23:51:28.454Z,96.20
2018-05-09T23:53:56.092Z,96.00
2018-05-09T23:56:23.655Z,96.20
2018-05-09T23:58:51.314Z,96.20
